Lynradar: storm image Ingen tordenbyger registrert..



Vårt webkamera mer informasjon My webcam


Kamera på Foreneset mer informasjon webcam on foreneset


Nedbørsradar  rain snow radar


Besøk vår andre værside:

Alternativ webside

iphone versjon

Nettbrett versjon

Foreneset
verstasjon



Ikke nødvendig med spesiell oppmerksomhet.    Det er ingen advarsler

Select another period ( hide this area )

enheter Periode Custom range Directly to
Metric Engelsk Begge
Daglig Weekly Månedlig Årlig
use both date-selectors for a custom range
previous Dag
With this date

WeatherUnderground graphs for this period ( click here )


Daglig sammendrag for Søndag 15 September 2019
Tid Temp. ( °C ) Dew pt. ( °C ) Vind ( km/h ) fra Vindkast ( km/h ) Trykk ( hPa ) Humid.( % ) Rainrate ( cm ) Sol ( W/m2 )
Max13,3 13,2 48,6 VEST ( 1803/3253 ) 64,2 1008,5 99 2,40 83
Snitt12,1 10,0 32,5 VEST #55/100 42,7 1006,5 87 2,10 24 #13/100
Min11,3 6,6 16,9   24,1 1005,4 71 -  
Daglig Tabular details for Søndag 15 September 2019
Tid Temp. ( °C ) Dew pt. ( °C ) Vind ( km/h ) fra Vindkast ( km/h ) Trykk ( hPa ) Humid.( % ) Rainrate ( cm ) Sol ( W/m2 )
00:00 13,3 13,1 25,3 VEST 35,2 1008,5 99 2,40 -
00:05 13,2 13,1 27,5 VEST 37,0 1008,2 99 2,20 -
00:10 13,3 13,1 16,9 VSV 29,6 1008,0 99 2,20 -
00:15 13,3 13,2 19,5 VEST 32,0 1007,9 99 2,20 -
00:20 13,1 12,9 22,0 SV 27,8 1007,9 99 2,20 -
00:25 13,2 13,0 22,2 VEST 33,3 1007,8 99 2,40 -
00:30 13,2 13,0 18,7 VEST 24,1 1008,0 99 2,20 -
00:35 13,1 12,9 26,5 VEST 29,6 1007,8 99 2,00 -
00:40 13,1 12,8 21,7 VSV 29,6 1007,7 98 2,20 -
00:45 13,1 12,8 35,4 VSV 38,9 1007,5 98 2,00 -
00:50 13,1 12,7 25,3 VSV 35,2 1007,6 98 1,80 -
00:55 13,0 12,7 32,3 VEST 40,7 1007,6 98 1,80 -
01:00 12,9 12,4 23,0 VEST 30,4 1007,5 97 1,40 -
01:05 12,8 12,4 29,9 VEST 42,2 1007,5 97 1,60 -
01:10 12,8 12,2 38,3 VEST 48,1 1007,5 96 1,60 -
01:15 12,6 11,8 41,2 VEST 57,4 1007,5 95 1,60 -
01:20 12,3 11,6 41,7 VSV 50,0 1007,6 95 1,40 -
01:25 12,0 11,1 38,3 VSV 59,1 1007,6 94 1,40 -
01:30 11,8 10,9 33,1 VEST 38,9 1007,5 94 1,40 -
01:35 11,9 11,0 24,9 VEST 31,5 1007,5 94 1,20 -
01:40 12,1 11,0 29,4 VEST 37,2 1007,5 93 1,00 -
01:45 12,2 11,1 37,3 VEST 50,7 1007,3 93 1,00 -
01:50 12,1 10,8 29,6 VSV 38,9 1007,5 92 1,00 -
01:55 11,8 10,3 42,0 VSV 55,5 1007,4 91 1,00 -
02:00 11,7 10,1 34,1 VEST 42,6 1007,6 90 1,00 -
02:05 11,8 10,2 33,8 VSV 40,7 1007,6 90 0,80 -
02:10 11,7 10,1 35,1 SV 38,9 1007,5 90 0,80 -
02:15 11,6 10,2 20,1 VSV 31,5 1007,3 91 0,60 -
02:20 11,6 10,3 24,1 VSV 33,8 1007,2 92 0,60 -
02:25 11,7 10,4 20,3 VEST 25,9 1007,1 92 0,60 -
02:30 11,7 10,4 27,8 VSV 40,7 1007,0 92 0,60 -
02:35 11,8 10,6 32,0 VSV 40,7 1007,1 92 0,60 -
02:40 12,0 10,7 20,3 VSV 27,8 1007,1 92 0,60 -
02:45 12,1 10,8 29,3 VEST 40,7 1006,9 92 0,60 -
02:50 12,3 11,0 27,2 VEST 31,5 1006,9 92 0,40 -
02:55 12,4 11,1 33,3 VSV 42,6 1006,8 92 0,40 -
03:00 12,4 11,0 26,9 VSV 42,6 1006,7 91 0,40 -
03:05 12,4 10,9 26,7 VEST 42,2 1006,8 91 0,40 -
03:10 12,4 10,8 25,1 VNV 33,3 1006,8 90 0,20 -
03:15 12,4 10,6 29,6 VEST 38,9 1006,8 89 0,20 -
03:20 12,4 10,4 27,2 VEST 35,2 1006,8 88 0,20 -
03:25 12,5 10,4 33,9 VEST 48,1 1006,8 87 - -
03:30 12,6 10,5 35,1 SV 47,3 1006,7 87 - -
03:35 12,6 10,2 27,0 VEST 38,9 1006,7 85 - -
03:40 12,6 10,2 23,0 VEST 27,8 1006,6 85 - -
03:45 12,7 10,4 33,0 VNV 37,2 1006,5 86 - -
03:50 12,6 10,3 29,3 VEST 37,2 1006,4 86 - -
03:55 12,6 9,9 38,6 VEST 52,5 1006,4 84 - -
04:00 12,6 9,6 31,5 NV 38,9 1006,5 82 - -
04:05 12,6 9,6 31,2 VEST 38,9 1006,3 82 - -
04:10 12,7 9,7 22,7 VEST 27,8 1006,2 82 - -
04:15 12,6 9,7 43,1 VNV 57,4 1006,3 83 - -
04:20 12,4 8,9 42,0 VSV 48,1 1006,3 79 - -
04:25 12,4 9,1 33,5 VEST 47,3 1006,1 80 - -
04:30 12,4 9,1 32,7 VEST 46,3 1006,0 80 - -
04:35 12,4 9,1 29,6 VEST 38,9 1005,9 80 - -
04:40 12,4 9,2 24,0 VSV 30,4 1005,9 81 - -
04:45 12,4 9,6 28,5 VSV 37,2 1005,8 83 - -
04:50 12,4 9,6 37,3 VEST 42,6 1006,1 83 - -
04:55 11,7 9,4 22,8 VSV 29,6 1005,9 86 0,40 -
05:00 11,4 9,9 42,5 VEST 50,0 1005,8 90 0,60 -
05:05 11,7 9,9 44,7 VEST 57,4 1006,1 89 0,60 -
05:10 11,4 9,7 26,7 VEST 38,9 1006,0 89 0,60 -
05:15 11,3 9,9 33,5 VNV 42,6 1006,0 91 0,60 -
05:20 11,4 9,7 41,4 VEST 50,0 1005,9 89 0,60 -
05:25 11,7 9,8 25,9 VSV 33,8 1005,8 88 0,60 -
05:30 11,7 9,4 39,6 VEST 57,4 1005,9 86 0,60 -
05:35 11,8 9,2 38,6 VEST 48,1 1005,9 84 0,60 -
05:40 11,9 9,3 30,6 VSV 42,6 1005,8 84 0,60 -
05:45 11,9 9,3 28,8 VSV 37,0 1005,9 84 0,60 -
05:50 12,0 9,2 40,1 VEST 52,5 1005,7 83 0,60 -
05:55 12,1 9,3 37,7 VEST 44,4 1005,6 83 0,20 -
06:00 12,2 9,4 34,8 VSV 46,3 1005,6 83 - -
06:05 11,9 9,2 39,1 VSV 51,8 1005,4 83 - -
06:10 11,7 8,7 37,0 VSV 51,8 1005,5 82 - -
06:15 11,9 9,2 34,4 VEST 48,9 1005,6 83 - -
06:20 11,9 9,1 25,7 VSV 33,8 1005,6 83 - -
06:25 11,7 8,9 31,1 VEST 40,7 1005,7 83 - -
06:30 11,8 9,2 28,8 VNV 44,4 1005,6 84 - -
06:35 11,4 8,8 34,9 VNV 38,9 1005,8 84 - -
06:40 11,4 8,8 37,7 VEST 48,9 1005,7 84 - -
06:45 11,6 8,8 38,3 VEST 46,3 1005,7 83 - -
06:50 11,8 8,8 27,7 VEST 37,2 1005,6 82 - -
06:55 11,8 8,4 43,9 VNV 53,7 1005,7 80 - -
07:00 11,7 8,3 48,6 VEST 64,2 1005,8 80 - -
07:05 11,4 7,9 44,1 VSV 52,5 1005,9 79 - -
07:10 11,6 8,1 47,1 VEST 59,2 1005,8 79 - -
07:15 11,7 8,4 27,5 VEST 35,6 1005,9 80 - 5
07:20 11,6 8,2 40,9 VSV 55,5 1005,8 80 - 7
07:25 11,5 8,2 36,7 VEST 48,9 1005,8 80 - 9
07:30 11,5 8,0 43,4 VNV 57,4 1005,7 79 - 12
07:35 11,6 7,4 47,0 VNV 53,7 1005,6 76 - 16
07:40 11,6 7,4 30,2 VSV 42,6 1005,6 76 - 19
07:45 11,4 7,3 32,5 VEST 48,1 1005,7 76 - 28
07:50 11,6 7,7 39,1 VEST 51,8 1005,7 77 - 21
07:55 11,7 7,4 40,5 VSV 48,1 1005,8 75 - 25
08:00 11,7 7,4 47,1 VEST 62,9 1005,7 75 - 23
08:05 11,7 7,4 40,9 VEST 54,1 1005,7 75 - 25
08:10 11,7 6,6 30,2 VSV 48,1 1005,7 71 - 33
08:15 11,6 6,9 40,2 VEST 57,4 1005,8 73 - 83
Daglig sammendrag for Søndag 15 September 2019
Tid Temp. ( °C ) Dew pt. ( °C ) Vind ( km/h ) fra Vindkast ( km/h ) Trykk ( hPa ) Humid.( % ) Rainrate ( cm ) Sol ( W/m2 )
Max13,3 13,2 48,6 VEST ( 1803/3253 ) 64,2 1008,5 99 2,40 83
Snitt12,1 10,0 32,5 VEST #55/100 42,7 1006,5 87 2,10 24 #13/100
Min11,3 6,6 16,9   24,1 1005,4 71 -  
Daglig Tabular details for Søndag 15 September 2019
Tid Temp. ( °C ) Dew pt. ( °C ) Vind ( km/h ) fra Vindkast ( km/h ) Trykk ( hPa ) Humid.( % ) Rainrate ( cm ) Sol ( W/m2 )
00:00 13,3 13,1 25,3 VEST 35,2 1008,5 99 2,40 -
00:05 13,2 13,1 27,5 VEST 37,0 1008,2 99 2,20 -
00:10 13,3 13,1 16,9 VSV 29,6 1008,0 99 2,20 -
00:15 13,3 13,2 19,5 VEST 32,0 1007,9 99 2,20 -
00:20 13,1 12,9 22,0 SV 27,8 1007,9 99 2,20 -
00:25 13,2 13,0 22,2 VEST 33,3 1007,8 99 2,40 -
00:30 13,2 13,0 18,7 VEST 24,1 1008,0 99 2,20 -
00:35 13,1 12,9 26,5 VEST 29,6 1007,8 99 2,00 -
00:40 13,1 12,8 21,7 VSV 29,6 1007,7 98 2,20 -
00:45 13,1 12,8 35,4 VSV 38,9 1007,5 98 2,00 -
00:50 13,1 12,7 25,3 VSV 35,2 1007,6 98 1,80 -
00:55 13,0 12,7 32,3 VEST 40,7 1007,6 98 1,80 -
01:00 12,9 12,4 23,0 VEST 30,4 1007,5 97 1,40 -
01:05 12,8 12,4 29,9 VEST 42,2 1007,5 97 1,60 -
01:10 12,8 12,2 38,3 VEST 48,1 1007,5 96 1,60 -
01:15 12,6 11,8 41,2 VEST 57,4 1007,5 95 1,60 -
01:20 12,3 11,6 41,7 VSV 50,0 1007,6 95 1,40 -
01:25 12,0 11,1 38,3 VSV 59,1 1007,6 94 1,40 -
01:30 11,8 10,9 33,1 VEST 38,9 1007,5 94 1,40 -
01:35 11,9 11,0 24,9 VEST 31,5 1007,5 94 1,20 -
01:40 12,1 11,0 29,4 VEST 37,2 1007,5 93 1,00 -
01:45 12,2 11,1 37,3 VEST 50,7 1007,3 93 1,00 -
01:50 12,1 10,8 29,6 VSV 38,9 1007,5 92 1,00 -
01:55 11,8 10,3 42,0 VSV 55,5 1007,4 91 1,00 -
02:00 11,7 10,1 34,1 VEST 42,6 1007,6 90 1,00 -
02:05 11,8 10,2 33,8 VSV 40,7 1007,6 90 0,80 -
02:10 11,7 10,1 35,1 SV 38,9 1007,5 90 0,80 -
02:15 11,6 10,2 20,1 VSV 31,5 1007,3 91 0,60 -
02:20 11,6 10,3 24,1 VSV 33,8 1007,2 92 0,60 -
02:25 11,7 10,4 20,3 VEST 25,9 1007,1 92 0,60 -
02:30 11,7 10,4 27,8 VSV 40,7 1007,0 92 0,60 -
02:35 11,8 10,6 32,0 VSV 40,7 1007,1 92 0,60 -
02:40 12,0 10,7 20,3 VSV 27,8 1007,1 92 0,60 -
02:45 12,1 10,8 29,3 VEST 40,7 1006,9 92 0,60 -
02:50 12,3 11,0 27,2 VEST 31,5 1006,9 92 0,40 -
02:55 12,4 11,1 33,3 VSV 42,6 1006,8 92 0,40 -
03:00 12,4 11,0 26,9 VSV 42,6 1006,7 91 0,40 -
03:05 12,4 10,9 26,7 VEST 42,2 1006,8 91 0,40 -
03:10 12,4 10,8 25,1 VNV 33,3 1006,8 90 0,20 -
03:15 12,4 10,6 29,6 VEST 38,9 1006,8 89 0,20 -
03:20 12,4 10,4 27,2 VEST 35,2 1006,8 88 0,20 -
03:25 12,5 10,4 33,9 VEST 48,1 1006,8 87 - -
03:30 12,6 10,5 35,1 SV 47,3 1006,7 87 - -
03:35 12,6 10,2 27,0 VEST 38,9 1006,7 85 - -
03:40 12,6 10,2 23,0 VEST 27,8 1006,6 85 - -
03:45 12,7 10,4 33,0 VNV 37,2 1006,5 86 - -
03:50 12,6 10,3 29,3 VEST 37,2 1006,4 86 - -
03:55 12,6 9,9 38,6 VEST 52,5 1006,4 84 - -
04:00 12,6 9,6 31,5 NV 38,9 1006,5 82 - -
04:05 12,6 9,6 31,2 VEST 38,9 1006,3 82 - -
04:10 12,7 9,7 22,7 VEST 27,8 1006,2 82 - -
04:15 12,6 9,7 43,1 VNV 57,4 1006,3 83 - -
04:20 12,4 8,9 42,0 VSV 48,1 1006,3 79 - -
04:25 12,4 9,1 33,5 VEST 47,3 1006,1 80 - -
04:30 12,4 9,1 32,7 VEST 46,3 1006,0 80 - -
04:35 12,4 9,1 29,6 VEST 38,9 1005,9 80 - -
04:40 12,4 9,2 24,0 VSV 30,4 1005,9 81 - -
04:45 12,4 9,6 28,5 VSV 37,2 1005,8 83 - -
04:50 12,4 9,6 37,3 VEST 42,6 1006,1 83 - -
04:55 11,7 9,4 22,8 VSV 29,6 1005,9 86 0,40 -
05:00 11,4 9,9 42,5 VEST 50,0 1005,8 90 0,60 -
05:05 11,7 9,9 44,7 VEST 57,4 1006,1 89 0,60 -
05:10 11,4 9,7 26,7 VEST 38,9 1006,0 89 0,60 -
05:15 11,3 9,9 33,5 VNV 42,6 1006,0 91 0,60 -
05:20 11,4 9,7 41,4 VEST 50,0 1005,9 89 0,60 -
05:25 11,7 9,8 25,9 VSV 33,8 1005,8 88 0,60 -
05:30 11,7 9,4 39,6 VEST 57,4 1005,9 86 0,60 -
05:35 11,8 9,2 38,6 VEST 48,1 1005,9 84 0,60 -
05:40 11,9 9,3 30,6 VSV 42,6 1005,8 84 0,60 -
05:45 11,9 9,3 28,8 VSV 37,0 1005,9 84 0,60 -
05:50 12,0 9,2 40,1 VEST 52,5 1005,7 83 0,60 -
05:55 12,1 9,3 37,7 VEST 44,4 1005,6 83 0,20 -
06:00 12,2 9,4 34,8 VSV 46,3 1005,6 83 - -
06:05 11,9 9,2 39,1 VSV 51,8 1005,4 83 - -
06:10 11,7 8,7 37,0 VSV 51,8 1005,5 82 - -
06:15 11,9 9,2 34,4 VEST 48,9 1005,6 83 - -
06:20 11,9 9,1 25,7 VSV 33,8 1005,6 83 - -
06:25 11,7 8,9 31,1 VEST 40,7 1005,7 83 - -
06:30 11,8 9,2 28,8 VNV 44,4 1005,6 84 - -
06:35 11,4 8,8 34,9 VNV 38,9 1005,8 84 - -
06:40 11,4 8,8 37,7 VEST 48,9 1005,7 84 - -
06:45 11,6 8,8 38,3 VEST 46,3 1005,7 83 - -
06:50 11,8 8,8 27,7 VEST 37,2 1005,6 82 - -
06:55 11,8 8,4 43,9 VNV 53,7 1005,7 80 - -
07:00 11,7 8,3 48,6 VEST 64,2 1005,8 80 - -
07:05 11,4 7,9 44,1 VSV 52,5 1005,9 79 - -
07:10 11,6 8,1 47,1 VEST 59,2 1005,8 79 - -
07:15 11,7 8,4 27,5 VEST 35,6 1005,9 80 - 5
07:20 11,6 8,2 40,9 VSV 55,5 1005,8 80 - 7
07:25 11,5 8,2 36,7 VEST 48,9 1005,8 80 - 9
07:30 11,5 8,0 43,4 VNV 57,4 1005,7 79 - 12
07:35 11,6 7,4 47,0 VNV 53,7 1005,6 76 - 16
07:40 11,6 7,4 30,2 VSV 42,6 1005,6 76 - 19
07:45 11,4 7,3 32,5 VEST 48,1 1005,7 76 - 28
07:50 11,6 7,7 39,1 VEST 51,8 1005,7 77 - 21
07:55 11,7 7,4 40,5 VSV 48,1 1005,8 75 - 25
08:00 11,7 7,4 47,1 VEST 62,9 1005,7 75 - 23
08:05 11,7 7,4 40,9 VEST 54,1 1005,7 75 - 25
08:10 11,7 6,6 30,2 VSV 48,1 1005,7 71 - 33
08:15 11,6 6,9 40,2 VEST 57,4 1005,8 73 - 83

Download your copy of this data-set  here

Our weather-data as stored at Weather Underground. Script utviklet av Jim McMurry. Tilrettelagt for malen av Leuven-Template.eu

Du finner vår vær info også på:

UK Metoffice

European Weather Network

WeatherCloud

Weather Underground

Utstyr vi bruker:

Værstsjon
Davis VP2

Værprogram
Weather Display

Davis VP2

Weather Display